Time;durP1;ratioP1;P1;durP2;ratioP2;P2;SDS_P1;SDS_P2;PMS_P1;PMS_P2;Temp;Humidity;BMP_temperature;BMP_pressure;BME280_temperature;BME280_humidity;BME280_pressure;Samples;Min_cycle;Max_cycle;Signal;HPM_P1;HPM_P2
2022/05/06 00:01:50;;;;;;;1.90;1.17;;;12.60;99.90;;;;;;5027666;28;20203;-83
2022/05/06 00:04:16;;;;;;;2.57;1.10;;;12.50;99.90;;;;;;5014591;28;20207;-82
2022/05/06 00:06:42;;;;;;;1.00;0.60;;;12.60;99.90;;;;;;5019519;28;20193;-82
2022/05/06 00:09:08;;;;;;;0.20;0.20;;;12.60;99.90;;;;;;5013573;28;20201;-82
2022/05/06 00:11:34;;;;;;;0.20;0.20;;;12.60;99.90;;;;;;5012343;28;20187;-83
2022/05/06 00:13:59;;;;;;;0.30;0.30;;;12.60;99.90;;;;;;5028532;28;20353;-83
2022/05/06 00:16:26;;;;;;;0.10;0.10;;;12.50;99.90;;;;;;5020243;28;20218;-82
2022/05/06 00:18:53;;;;;;;0.20;0.20;;;12.40;99.90;;;;;;5014212;28;20350;-81
2022/05/06 00:21:19;;;;;;;0.13;0.13;;;12.40;99.90;;;;;;5014030;28;20197;-82
2022/05/06 00:23:45;;;;;;;1.37;1.37;;;12.30;99.90;;;;;;5018196;28;20307;-82
2022/05/06 00:26:11;;;;;;;0.60;0.60;;;12.40;99.90;;;;;;5013000;28;20191;-82
2022/05/06 00:28:37;;;;;;;0.30;0.30;;;12.40;99.90;;;;;;5011979;28;20219;-82
2022/05/06 00:31:04;;;;;;;0.20;0.20;;;12.40;99.90;;;;;;5014513;28;20596;-82
2022/05/06 00:33:30;;;;;;;0.47;0.47;;;12.40;99.90;;;;;;5008892;28;20260;-82
2022/05/06 00:35:57;;;;;;;0.30;0.30;;;12.40;99.90;;;;;;5012551;28;20253;-82
2022/05/06 00:38:23;;;;;;;0.37;0.37;;;12.40;99.90;;;;;;5009812;28;20188;-82
2022/05/06 00:40:50;;;;;;;0.30;0.30;;;12.50;99.90;;;;;;5010455;28;20201;-82
2022/05/06 00:43:16;;;;;;;0.30;0.30;;;12.50;99.90;;;;;;5005729;28;20225;-82
2022/05/06 00:45:54;;;;;;;0.13;0.13;;;12.50;99.90;;;;;;5009948;28;20268;-81
2022/05/06 00:48:23;;;;;;;0.93;0.57;;;12.50;99.90;;;;;;5025712;28;20214;-82
2022/05/06 00:50:50;;;;;;;0.30;0.30;;;12.50;99.90;;;;;;5015155;28;20212;-82
2022/05/06 00:53:15;;;;;;;0.60;0.60;;;12.60;99.90;;;;;;5008780;28;20213;-82
2022/05/06 00:55:42;;;;;;;0.17;0.17;;;12.60;99.90;;;;;;5008633;28;20662;-82
2022/05/06 00:58:09;;;;;;;0.47;0.47;;;12.50;99.90;;;;;;5008932;28;20609;-83
2022/05/06 01:00:34;;;;;;;0.30;0.30;;;12.40;99.90;;;;;;5023844;28;20212;-83
2022/05/06 01:03:00;;;;;;;0.57;0.57;;;12.30;99.90;;;;;;5007235;28;20706;-83
2022/05/06 01:05:26;;;;;;;0.10;0.10;;;12.20;99.90;;;;;;5007115;28;20623;-82
2022/05/06 01:07:52;;;;;;;0.20;0.20;;;12.20;99.90;;;;;;5009114;28;20214;-81
2022/05/06 01:10:20;;;;;;;0.73;0.47;;;12.20;99.90;;;;;;5012292;28;20200;-82
2022/05/06 01:12:46;;;;;;;0.33;0.20;;;12.20;99.90;;;;;;5011521;28;20288;-82
2022/05/06 01:15:23;;;;;;;0.40;0.30;;;12.30;99.90;;;;;;5008939;28;20185;-82
2022/05/06 01:17:52;;;;;;;0.47;0.47;;;12.20;99.90;;;;;;5008401;28;20184;-82
2022/05/06 01:20:19;;;;;;;0.33;0.33;;;12.20;99.90;;;;;;5008624;28;20292;-82
2022/05/06 01:22:53;;;;;;;0.20;0.20;;;12.20;99.90;;;;;;5014321;28;20195;-82
2022/05/06 01:25:22;;;;;;;0.10;0.10;;;12.20;99.90;;;;;;5015452;28;20186;-82
2022/05/06 01:27:57;;;;;;;0.10;0.10;;;12.20;99.90;;;;;;5014613;28;20264;-82
2022/05/06 01:30:31;;;;;;;0.20;0.13;;;12.30;99.90;;;;;;5007813;28;20182;-82
2022/05/06 01:32:59;;;;;;;0.40;0.27;;;12.30;99.90;;;;;;5006233;28;20204;-81
2022/05/06 01:35:26;;;;;;;1.10;0.70;;;12.30;99.90;;;;;;5007645;28;20179;-82
2022/05/06 01:37:54;;;;;;;0.83;0.80;;;12.30;99.90;;;;;;5008180;28;20190;-82
2022/05/06 01:40:22;;;;;;;1.97;0.90;;;12.30;99.90;;;;;;5026852;28;20286;-83
2022/05/06 01:42:52;;;;;;;1.17;1.10;;;12.20;99.90;;;;;;5010908;28;20208;-81
2022/05/06 01:45:21;;;;;;;0.60;0.60;;;12.20;99.90;;;;;;5011470;28;20207;-82
2022/05/06 01:47:47;;;;;;;0.33;0.33;;;12.20;99.90;;;;;;5016784;28;20198;-82
2022/05/06 01:50:13;;;;;;;1.03;0.93;;;12.20;99.90;;;;;;5026233;28;20205;-82
2022/05/06 01:52:40;;;;;;;0.73;0.73;;;12.10;99.90;;;;;;5025484;28;20575;-83
2022/05/06 01:55:07;;;;;;;0.83;0.83;;;12.00;99.90;;;;;;5011468;28;20214;-82
2022/05/06 01:57:32;;;;;;;0.63;0.40;;;12.00;99.90;;;;;;5010615;28;20187;-82
2022/05/06 01:59:58;;;;;;;0.97;0.70;;;12.00;99.90;;;;;;5025335;28;20265;-82
2022/05/06 02:02:23;;;;;;;0.37;0.37;;;12.00;99.90;;;;;;5016622;28;20680;-82
2022/05/06 02:07:33;;;;;;;0.20;0.20;;;12.00;99.90;;;;;;5010147;28;20295;-81
2022/05/06 02:09:58;;;;;;;0.50;0.50;;;12.00;99.90;;;;;;5017321;28;20325;-81
2022/05/06 02:12:25;;;;;;;0.90;0.73;;;12.00;99.90;;;;;;5026839;28;20218;-82
2022/05/06 02:14:51;;;;;;;1.07;0.87;;;11.90;99.90;;;;;;5010922;28;20245;-82
2022/05/06 02:17:16;;;;;;;4.70;0.60;;;12.00;99.90;;;;;;5014832;28;20233;-82
2022/05/06 02:19:42;;;;;;;0.83;0.40;;;11.90;99.90;;;;;;5011688;28;20664;-82
2022/05/06 02:22:08;;;;;;;0.20;0.20;;;11.90;99.90;;;;;;5024854;28;20210;-82
2022/05/06 02:24:33;;;;;;;0.33;0.33;;;11.90;99.90;;;;;;5007744;28;20251;-82
2022/05/06 02:26:59;;;;;;;2.40;0.40;;;11.80;99.90;;;;;;5024081;28;20218;-82
2022/05/06 02:29:25;;;;;;;0.37;0.37;;;11.80;99.90;;;;;;5015089;28;20262;-82
2022/05/06 02:34:34;;;;;;;0.20;0.20;;;11.70;99.90;;;;;;5009361;28;20202;-81
2022/05/06 02:37:00;;;;;;;0.50;0.50;;;11.70;99.90;;;;;;5024713;28;20262;-82
2022/05/06 02:39:26;;;;;;;0.10;0.10;;;11.80;99.90;;;;;;5016521;28;20195;-82
2022/05/06 02:41:51;;;;;;;0.67;0.30;;;11.80;99.90;;;;;;5015223;28;20191;-81
2022/05/06 02:44:18;;;;;;;0.20;0.20;;;11.80;99.90;;;;;;5009065;28;20248;-82
2022/05/06 02:46:43;;;;;;;0.37;0.37;;;11.80;99.90;;;;;;5009170;28;20183;-82
2022/05/06 02:49:09;;;;;;;0.20;0.20;;;11.80;99.90;;;;;;5008086;28;20219;-82
2022/05/06 02:51:34;;;;;;;0.50;0.50;;;11.90;99.90;;;;;;5013625;28;20198;-81
2022/05/06 02:54:00;;;;;;;3.07;0.50;;;11.90;99.90;;;;;;5014937;28;20209;-81
2022/05/06 02:56:26;;;;;;;0.30;0.23;;;11.90;99.90;;;;;;5013249;28;20189;-82
2022/05/06 02:58:51;;;;;;;0.43;0.43;;;11.90;99.90;;;;;;5013764;28;20195;-82
2022/05/06 03:01:17;;;;;;;0.20;0.20;;;11.80;99.90;;;;;;5025874;28;20745;-82
2022/05/06 03:03:44;;;;;;;0.20;0.20;;;11.80;99.90;;;;;;5013872;28;20215;-82
2022/05/06 03:06:09;;;;;;;0.63;0.50;;;11.80;99.90;;;;;;5007341;28;20183;-82
2022/05/06 03:08:35;;;;;;;0.60;0.40;;;11.80;99.90;;;;;;5007970;28;20241;-81
2022/05/06 03:11:01;;;;;;;0.53;0.53;;;11.70;99.90;;;;;;5008486;28;20223;-82
2022/05/06 03:13:27;;;;;;;0.10;0.10;;;11.70;99.90;;;;;;5006561;28;20213;-82
2022/05/06 03:15:53;;;;;;;0.50;0.50;;;11.70;99.90;;;;;;5013690;28;20187;-83
2022/05/06 03:18:19;;;;;;;0.30;0.30;;;11.60;99.90;;;;;;5008969;28;20425;-81
2022/05/06 03:20:44;;;;;;;0.20;0.20;;;11.60;99.90;;;;;;5022761;28;20217;-81
2022/05/06 03:23:12;;;;;;;0.23;0.23;;;11.70;99.90;;;;;;5019426;28;20301;-81
2022/05/06 03:25:37;;;;;;;0.30;0.30;;;11.70;99.90;;;;;;5003592;28;20195;-82
2022/05/06 03:28:07;;;;;;;0.40;0.37;;;11.70;99.90;;;;;;5008455;28;20237;-81
2022/05/06 03:30:39;;;;;;;0.60;0.60;;;11.70;99.90;;;;;;5010295;28;20559;-82
2022/05/06 03:33:09;;;;;;;0.10;0.10;;;11.70;99.90;;;;;;5004644;28;20233;-82
2022/05/06 03:35:36;;;;;;;0.20;0.13;;;11.70;99.90;;;;;;5009954;28;20196;-82
2022/05/06 03:38:02;;;;;;;0.17;0.17;;;11.70;99.90;;;;;;5005185;28;20198;-82
2022/05/06 03:40:28;;;;;;;0.10;0.10;;;11.70;99.90;;;;;;5009402;28;20680;-82
2022/05/06 03:42:54;;;;;;;0.27;0.27;;;11.70;99.90;;;;;;5019018;28;20219;-82
2022/05/06 03:45:20;;;;;;;0.87;0.37;;;11.60;99.90;;;;;;5020035;28;20564;-82
2022/05/06 03:47:45;;;;;;;0.20;0.20;;;11.60;99.90;;;;;;5003824;28;20206;-82
2022/05/06 03:52:55;;;;;;;0.20;0.20;;;11.50;99.90;;;;;;4995280;28;20218;-82
2022/05/06 03:55:21;;;;;;;1.83;0.30;;;11.60;99.90;;;;;;5003046;28;20184;-81
2022/05/06 03:57:47;;;;;;;0.50;0.20;;;11.60;99.90;;;;;;5004968;28;20187;-82
2022/05/06 04:00:14;;;;;;;0.47;0.47;;;11.60;99.90;;;;;;5004237;28;20185;-82
2022/05/06 04:02:40;;;;;;;0.17;0.17;;;11.60;99.90;;;;;;5016769;28;20314;-82
2022/05/06 04:05:06;;;;;;;0.53;0.27;;;11.50;99.90;;;;;;5002437;28;20185;-82
2022/05/06 04:07:32;;;;;;;0.10;0.10;;;11.50;99.90;;;;;;5003986;28;20199;-82
2022/05/06 04:09:57;;;;;;;0.50;0.50;;;11.40;99.90;;;;;;5002631;28;20210;-82
2022/05/06 04:12:23;;;;;;;0.10;0.10;;;11.40;99.90;;;;;;5016930;28;20214;-81
2022/05/06 04:14:50;;;;;;;0.20;0.20;;;11.40;99.90;;;;;;5007615;28;20226;-81
2022/05/06 04:17:16;;;;;;;0.83;0.73;;;11.30;99.90;;;;;;5002729;28;20190;-81
2022/05/06 04:23:28;;;;;;;0.10;0.10;;;11.30;99.90;;;;;;5002346;28;20559;-82
2022/05/06 04:25:14;;;;;;;0.30;0.30;;;11.20;99.90;;;;;;5003470;28;20199;-82
2022/05/06 04:27:40;;;;;;;0.30;0.30;;;11.30;99.90;;;;;;5017126;28;20194;-82
2022/05/06 04:30:06;;;;;;;0.40;0.20;;;11.50;99.90;;;;;;5004172;28;20194;-83
2022/05/06 04:32:31;;;;;;;0.20;0.13;;;11.60;99.90;;;;;;5003493;28;20218;-81
2022/05/06 04:34:57;;;;;;;0.10;0.10;;;11.80;99.90;;;;;;5009536;28;20183;-83
2022/05/06 04:37:22;;;;;;;0.17;0.17;;;12.00;99.90;;;;;;5004513;28;20246;-82
2022/05/06 04:39:48;;;;;;;0.40;0.30;;;12.00;99.90;;;;;;5004246;28;20193;-82
2022/05/06 04:42:15;;;;;;;0.87;0.33;;;12.10;99.90;;;;;;5002660;28;20716;-82
2022/05/06 04:44:41;;;;;;;0.47;0.47;;;12.20;99.90;;;;;;5010061;28;20191;-81
2022/05/06 04:47:06;;;;;;;0.37;0.37;;;12.30;99.90;;;;;;5004083;28;20267;-82
2022/05/06 04:49:32;;;;;;;0.10;0.10;;;12.20;99.90;;;;;;5010038;28;20225;-82
2022/05/06 04:51:57;;;;;;;0.10;0.10;;;12.20;99.90;;;;;;5010370;28;20184;-82
2022/05/06 04:54:23;;;;;;;0.13;0.13;;;12.40;99.90;;;;;;5002452;28;20282;-82
2022/05/06 04:56:49;;;;;;;0.50;0.50;;;12.50;99.90;;;;;;5002999;28;20204;-83
2022/05/06 04:59:14;;;;;;;0.13;0.13;;;12.70;99.90;;;;;;5004515;28;20190;-82
2022/05/06 05:01:40;;;;;;;0.73;0.37;;;12.80;99.90;;;;;;5004932;28;20254;-82
2022/05/06 05:04:06;;;;;;;0.30;0.30;;;12.90;99.90;;;;;;5020621;28;20208;-80
2022/05/06 05:06:33;;;;;;;0.20;0.20;;;12.90;99.90;;;;;;5001297;28;20198;-80
2022/05/06 05:08:59;;;;;;;0.97;0.50;;;13.10;99.90;;;;;;5001455;28;20209;-80
2022/05/06 05:11:24;;;;;;;0.20;0.20;;;13.20;99.90;;;;;;5015676;28;20185;-79
2022/05/06 05:13:50;;;;;;;0.27;0.27;;;13.30;99.90;;;;;;5000659;28;20410;-79
2022/05/06 05:16:16;;;;;;;0.27;0.27;;;13.40;99.90;;;;;;5016483;28;20674;-80
2022/05/06 05:18:42;;;;;;;0.23;0.23;;;13.50;99.90;;;;;;5000209;28;20192;-80
2022/05/06 05:21:07;;;;;;;0.67;0.67;;;13.60;99.90;;;;;;5005203;28;20320;-81
2022/05/06 05:23:33;;;;;;;0.30;0.30;;;13.70;99.90;;;;;;5007480;28;20236;-81
2022/05/06 05:25:58;;;;;;;0.73;0.60;;;13.70;99.90;;;;;;5007976;28;20191;-81
2022/05/06 05:28:24;;;;;;;0.20;0.20;;;13.80;99.90;;;;;;5007741;28;20212;-81
2022/05/06 05:30:49;;;;;;;0.63;0.50;;;13.90;99.90;;;;;;5007575;28;20195;-80
2022/05/06 05:33:15;;;;;;;0.77;0.40;;;14.00;99.90;;;;;;5004457;28;20209;-80
2022/05/06 05:35:40;;;;;;;0.27;0.27;;;14.00;99.90;;;;;;5006358;28;20197;-81
2022/05/06 05:38:06;;;;;;;0.30;0.30;;;14.00;99.90;;;;;;5011246;28;20685;-81
2022/05/06 05:40:32;;;;;;;0.17;0.17;;;14.20;99.90;;;;;;5013184;28;20251;-81
2022/05/06 05:42:57;;;;;;;0.37;0.37;;;14.20;99.90;;;;;;5010725;28;20246;-81
2022/05/06 05:48:19;;;;;;;0.47;0.47;;;14.40;99.90;;;;;;5007813;28;20214;-81
2022/05/06 05:50:45;;;;;;;0.20;0.20;;;14.40;99.90;;;;;;5011842;28;20221;-82
2022/05/06 05:53:10;;;;;;;0.87;0.67;;;14.50;99.90;;;;;;5004779;28;20199;-82
2022/05/06 05:55:36;;;;;;;1.47;0.20;;;14.60;99.90;;;;;;5007228;28;20715;-81
2022/05/06 05:58:02;;;;;;;0.20;0.20;;;14.70;99.90;;;;;;5021241;28;20185;-82
2022/05/06 06:00:28;;;;;;;0.47;0.47;;;14.80;99.90;;;;;;5020549;28;21257;-80
2022/05/06 06:02:53;;;;;;;0.30;0.30;;;15.00;99.90;;;;;;5005034;28;20223;-82
2022/05/06 06:05:19;;;;;;;1.57;0.50;;;15.00;99.90;;;;;;5010759;28;20197;-81
2022/05/06 06:07:45;;;;;;;0.40;0.40;;;15.10;99.90;;;;;;5019301;28;20723;-82
2022/05/06 06:10:10;;;;;;;0.60;0.50;;;15.10;99.90;;;;;;5005054;28;20188;-81
2022/05/06 06:12:36;;;;;;;0.17;0.17;;;15.20;99.90;;;;;;5002996;28;20758;-81
2022/05/06 06:15:02;;;;;;;0.67;0.67;;;15.20;99.90;;;;;;5012000;28;20260;-81
2022/05/06 06:17:28;;;;;;;0.43;0.43;;;15.30;99.90;;;;;;5007399;28;20177;-81
2022/05/06 06:19:54;;;;;;;0.40;0.40;;;15.50;99.90;;;;;;5001487;28;20188;-81
2022/05/06 06:22:19;;;;;;;0.63;0.63;;;15.60;99.90;;;;;;4994300;28;20214;-81
2022/05/06 06:24:45;;;;;;;0.50;0.50;;;15.80;99.90;;;;;;5002507;28;20656;-81
2022/05/06 06:27:10;;;;;;;0.77;0.57;;;15.80;99.90;;;;;;5003270;28;20286;-81
2022/05/06 06:29:36;;;;;;;0.40;0.40;;;16.00;99.90;;;;;;5017681;28;20345;-83
2022/05/06 06:32:03;;;;;;;0.17;0.17;;;16.10;99.90;;;;;;5004922;28;20217;-82
2022/05/06 06:34:28;;;;;;;0.83;0.83;;;16.30;99.90;;;;;;5017484;28;20191;-83
2022/05/06 06:36:53;;;;;;;1.23;0.40;;;16.40;99.90;;;;;;5010107;28;20282;-83
2022/05/06 06:39:19;;;;;;;0.30;0.30;;;16.50;99.90;;;;;;5018453;28;20195;-82
2022/05/06 06:41:45;;;;;;;0.80;0.30;;;16.70;99.90;;;;;;5011277;28;20186;-82
2022/05/06 06:44:10;;;;;;;0.20;0.20;;;16.80;99.90;;;;;;5002958;28;20195;-82
2022/05/06 06:46:36;;;;;;;0.33;0.33;;;17.00;99.90;;;;;;5011838;28;20269;-82
2022/05/06 06:49:01;;;;;;;0.50;0.50;;;17.10;99.90;;;;;;5005478;28;20235;-82
2022/05/06 06:51:27;;;;;;;1.97;0.77;;;17.20;99.90;;;;;;5006494;28;20199;-82
2022/05/06 06:53:55;;;;;;;0.40;0.40;;;17.40;99.90;;;;;;5019410;28;20206;-82
2022/05/06 06:56:22;;;;;;;0.67;0.67;;;17.50;99.90;;;;;;5003976;28;20186;-81
2022/05/06 06:58:47;;;;;;;0.40;0.40;;;17.60;99.90;;;;;;5008403;28;20636;-81
2022/05/06 07:01:13;;;;;;;0.53;0.53;;;17.60;99.90;;;;;;5008879;28;20219;-81
2022/05/06 07:03:38;;;;;;;0.90;0.43;;;17.70;99.90;;;;;;5001415;28;20203;-81
2022/05/06 07:14:16;;;;;;;0.30;0.30;;;18.20;99.90;;;;;;4999998;28;20697;-80
2022/05/06 07:16:42;;;;;;;0.73;0.57;;;18.30;99.90;;;;;;5004781;28;20190;-80
2022/05/06 07:19:08;;;;;;;0.30;0.30;;;18.20;99.90;;;;;;4999346;28;20184;-80
2022/05/06 07:21:33;;;;;;;0.27;0.27;;;18.40;99.90;;;;;;4999512;28;20584;-80
2022/05/06 07:23:59;;;;;;;0.23;0.23;;;18.30;99.90;;;;;;5000691;28;20231;-79
2022/05/06 07:26:25;;;;;;;0.93;0.93;;;18.40;99.90;;;;;;5005394;28;20189;-80
2022/05/06 07:28:51;;;;;;;0.83;0.57;;;18.60;99.90;;;;;;4999985;28;20207;-80
2022/05/06 07:31:16;;;;;;;0.30;0.30;;;18.80;99.90;;;;;;5014308;28;20322;-80
2022/05/06 07:33:42;;;;;;;0.40;0.40;;;18.20;99.90;;;;;;5014122;28;20388;-80
2022/05/06 07:36:07;;;;;;;0.60;0.60;;;17.90;99.90;;;;;;4998012;28;20832;-80
2022/05/06 07:38:33;;;;;;;0.53;0.43;;;18.00;99.90;;;;;;5011603;28;20908;-80
2022/05/06 07:41:01;;;;;;;0.27;0.27;;;17.80;99.90;;;;;;5000144;28;20179;-80
2022/05/06 07:43:26;;;;;;;0.30;0.30;;;18.10;99.90;;;;;;4999349;28;21042;-80
2022/05/06 07:45:52;;;;;;;0.53;0.53;;;17.80;99.90;;;;;;4998245;28;20206;-80
2022/05/06 07:48:18;;;;;;;0.37;0.30;;;17.60;99.90;;;;;;4997719;28;20231;-80
2022/05/06 07:50:44;;;;;;;0.33;0.33;;;18.10;99.90;;;;;;4997880;28;20603;-80
2022/05/06 07:53:15;;;;;;;1.10;1.10;;;18.00;99.90;;;;;;5012424;28;20322;-80
2022/05/06 07:55:41;;;;;;;0.20;0.20;;;18.10;99.90;;;;;;4998715;28;20544;-80
2022/05/06 07:58:07;;;;;;;0.30;0.30;;;18.00;99.90;;;;;;4997348;28;20183;-80
2022/05/06 08:00:32;;;;;;;1.33;0.33;;;18.00;99.90;;;;;;4997144;28;20245;-80
2022/05/06 08:05:46;;;;;;;0.60;0.40;;;18.10;99.90;;;;;;4999941;28;20301;-80
2022/05/06 08:08:11;;;;;;;0.37;0.37;;;18.40;99.90;;;;;;4998335;28;20681;-80
2022/05/06 08:10:37;;;;;;;0.30;0.30;;;18.30;99.90;;;;;;4997782;28;20188;-81
2022/05/06 08:13:03;;;;;;;0.27;0.27;;;18.40;99.90;;;;;;4997067;28;20666;-81
2022/05/06 08:15:28;;;;;;;0.53;0.43;;;18.70;99.90;;;;;;5005139;28;20976;-81
2022/05/06 08:17:54;;;;;;;0.40;0.40;;;18.60;99.90;;;;;;5015451;28;20186;-80
2022/05/06 08:20:19;;;;;;;1.50;0.60;;;18.80;99.90;;;;;;4998295;28;20235;-81
2022/05/06 08:22:45;;;;;;;2.23;0.50;;;18.80;99.90;;;;;;5013178;28;20208;-80
2022/05/06 08:25:11;;;;;;;0.10;0.10;;;19.00;99.90;;;;;;4999372;28;20653;-80
2022/05/06 08:27:37;;;;;;;1.30;0.57;;;18.80;99.90;;;;;;5000011;28;20197;-80
2022/05/06 08:30:07;;;;;;;0.43;0.43;;;18.50;99.90;;;;;;4999093;28;20755;-80
2022/05/06 08:32:33;;;;;;;0.40;0.30;;;18.70;99.90;;;;;;4999299;28;20600;-80
2022/05/06 08:34:59;;;;;;;0.17;0.17;;;19.10;99.90;;;;;;5000387;28;20197;-80
2022/05/06 08:37:25;;;;;;;0.20;0.20;;;19.10;99.90;;;;;;5000512;28;20187;-80
2022/05/06 08:39:51;;;;;;;0.20;0.20;;;19.00;99.90;;;;;;5000984;28;20188;-80
2022/05/06 08:42:19;;;;;;;0.37;0.37;;;19.10;99.90;;;;;;4998156;28;20730;-80
2022/05/06 08:53:03;;;;;;;0.47;0.30;;;18.80;99.90;;;;;;5000286;28;20261;-80
2022/05/06 08:55:29;;;;;;;0.20;0.20;;;19.10;99.90;;;;;;4999041;28;20206;-80
2022/05/06 08:57:55;;;;;;;0.20;0.20;;;19.20;99.90;;;;;;4999247;28;20211;-80
2022/05/06 09:00:24;;;;;;;0.20;0.20;;;19.00;99.90;;;;;;5000842;28;20188;-80
2022/05/06 09:02:51;;;;;;;0.37;0.37;;;19.10;99.90;;;;;;4998819;28;20209;-80
2022/05/06 09:05:18;;;;;;;0.40;0.40;;;19.00;99.90;;;;;;5004964;28;20182;-80
2022/05/06 09:08:04;;;;;;;0.43;0.43;;;19.10;99.90;;;;;;4998831;28;20198;-80
2022/05/06 09:10:31;;;;;;;0.20;0.20;;;18.40;99.90;;;;;;4998986;28;20204;-80
2022/05/06 09:13:00;;;;;;;0.20;0.20;;;18.90;99.90;;;;;;4998370;28;20233;-80
2022/05/06 09:18:22;;;;;;;0.30;0.30;;;19.30;99.90;;;;;;4999545;28;20186;-80
2022/05/06 09:20:49;;;;;;;0.20;0.20;;;19.50;99.90;;;;;;4998391;28;20193;-80
2022/05/06 09:23:25;;;;;;;0.30;0.30;;;19.50;99.90;;;;;;5000187;28;20207;-81
2022/05/06 09:25:55;;;;;;;0.40;0.40;;;19.60;99.90;;;;;;4998781;28;20195;-80
2022/05/06 09:28:34;;;;;;;0.80;0.30;;;20.00;99.90;;;;;;5014729;28;20764;-81
2022/05/06 09:31:10;;;;;;;0.30;0.30;;;19.90;99.90;;;;;;5015677;28;20181;-81
2022/05/06 09:33:37;;;;;;;0.27;0.27;;;19.60;99.90;;;;;;5001104;28;20213;-82
2022/05/06 09:36:29;;;;;;;1.30;0.40;;;20.20;99.90;;;;;;4998681;28;20359;-83
2022/05/06 09:39:11;;;;;;;0.30;0.30;;;20.00;99.90;;;;;;5006482;28;20191;-82
2022/05/06 09:41:38;;;;;;;0.20;0.20;;;19.60;99.90;;;;;;5001123;28;20183;-82
2022/05/06 09:44:06;;;;;;;0.20;0.20;;;19.30;99.90;;;;;;5005296;28;20215;-83
2022/05/06 09:46:32;;;;;;;0.30;0.30;;;19.50;99.90;;;;;;4996617;28;20867;-81
2022/05/06 09:49:00;;;;;;;0.30;0.30;;;20.00;99.90;;;;;;4998597;28;20303;-81
2022/05/06 09:51:27;;;;;;;0.30;0.30;;;20.50;99.90;;;;;;5000653;28;20190;-81
2022/05/06 09:53:56;;;;;;;0.10;0.10;;;20.40;99.90;;;;;;4997212;28;20207;-81
2022/05/06 09:56:24;;;;;;;0.13;0.13;;;20.20;99.90;;;;;;4999777;28;20640;-81
2022/05/06 09:58:51;;;;;;;1.40;0.87;;;19.90;99.90;;;;;;4999695;28;20183;-81
2022/05/06 10:01:18;;;;;;;0.20;0.20;;;20.00;99.90;;;;;;5000032;28;20187;-81
2022/05/06 10:03:44;;;;;;;0.93;0.30;;;20.00;99.90;;;;;;5001075;28;20589;-81
2022/05/06 10:06:10;;;;;;;0.10;0.10;;;20.20;99.90;;;;;;5007204;28;20331;-81
2022/05/06 10:08:38;;;;;;;0.50;0.50;;;20.60;99.90;;;;;;5000407;28;20220;-81
2022/05/06 10:11:12;;;;;;;0.50;0.30;;;20.10;99.90;;;;;;4998788;28;20206;-81
2022/05/06 10:13:43;;;;;;;0.30;0.30;;;19.90;99.90;;;;;;5001224;28;21067;-81
2022/05/06 10:16:09;;;;;;;0.30;0.20;;;20.30;99.90;;;;;;5001231;28;20184;-81
2022/05/06 10:18:36;;;;;;;0.80;0.80;;;20.60;99.90;;;;;;5001950;28;20199;-82
2022/05/06 10:21:03;;;;;;;0.27;0.27;;;20.70;99.90;;;;;;5001603;28;20191;-83
2022/05/06 10:23:46;;;;;;;0.20;0.20;;;20.80;99.90;;;;;;5002240;28;20756;-84
2022/05/06 10:26:33;;;;;;;0.40;0.40;;;21.60;99.90;;;;;;5003122;28;20201;-82
2022/05/06 10:34:32;;;;;;;0.30;0.30;;;21.10;99.90;;;;;;5003073;28;20255;-83
2022/05/06 10:37:01;;;;;;;0.20;0.20;;;21.30;99.90;;;;;;5003949;28;20187;-83
2022/05/06 10:39:33;;;;;;;0.20;0.20;;;21.90;99.90;;;;;;5003048;28;20218;-83
2022/05/06 10:42:11;;;;;;;0.30;0.30;;;21.80;99.90;;;;;;5017836;28;20195;-83
2022/05/06 10:44:48;;;;;;;0.20;0.20;;;21.40;99.90;;;;;;5016587;28;20333;-83
2022/05/06 10:47:14;;;;;;;0.40;0.40;;;20.50;99.90;;;;;;5008464;28;20190;-82
2022/05/06 10:49:39;;;;;;;0.30;0.30;;;21.30;99.90;;;;;;5002818;28;20222;-83
2022/05/06 10:52:24;;;;;;;2.17;1.23;;;21.50;99.90;;;;;;5015607;28;20214;-84
2022/05/06 10:55:01;;;;;;;0.17;0.17;;;21.40;99.90;;;;;;5000942;28;20183;-84
2022/05/06 10:57:32;;;;;;;0.23;0.23;;;21.60;99.90;;;;;;5000703;28;20183;-83
2022/05/06 11:00:03;;;;;;;2.00;0.37;;;22.00;99.90;;;;;;5008171;28;20188;-84
2022/05/06 11:02:33;;;;;;;0.30;0.30;;;22.30;99.90;;;;;;4997791;28;20681;-83
2022/05/06 11:05:00;;;;;;;0.60;0.60;;;21.50;99.90;;;;;;5001751;28;20202;-83
2022/05/06 11:07:28;;;;;;;0.20;0.20;;;21.60;99.90;;;;;;5001910;28;20257;-83
2022/05/06 11:09:53;;;;;;;0.20;0.20;;;21.20;99.90;;;;;;5005965;28;20215;-83
2022/05/06 11:12:33;;;;;;;0.20;0.20;;;20.80;99.90;;;;;;5001939;28;20202;-82
2022/05/06 11:14:59;;;;;;;0.77;0.30;;;20.30;99.90;;;;;;4999478;28;20180;-83
2022/05/06 11:17:25;;;;;;;0.10;0.10;;;20.00;99.90;;;;;;5000924;28;20196;-83
2022/05/06 11:19:51;;;;;;;0.50;0.50;;;20.00;99.90;;;;;;5002171;28;20184;-82
2022/05/06 11:22:17;;;;;;;0.40;0.40;;;20.30;99.90;;;;;;5010453;28;20215;-83
2022/05/06 11:24:43;;;;;;;0.30;0.30;;;20.90;99.90;;;;;;5002331;28;20547;-84
2022/05/06 11:27:16;;;;;;;0.17;0.17;;;21.30;99.90;;;;;;5016328;28;20207;-83
2022/05/06 11:29:48;;;;;;;0.30;0.30;;;21.20;99.90;;;;;;5000480;28;20211;-84
2022/05/06 11:32:15;;;;;;;0.80;0.57;;;21.30;99.90;;;;;;5016085;28;20264;-83
2022/05/06 11:35:02;;;;;;;0.20;0.20;;;21.40;99.90;;;;;;5017240;28;20183;-83
2022/05/06 11:37:33;;;;;;;0.30;0.30;;;22.00;99.90;;;;;;4998932;28;20189;-83
2022/05/06 11:42:44;;;;;;;0.20;0.20;;;22.00;99.90;;;;;;5002973;28;20323;-84
2022/05/06 11:48:14;;;;;;;0.77;0.40;;;21.10;99.90;;;;;;5000715;28;20186;-82
2022/05/06 11:50:41;;;;;;;0.57;0.40;;;21.00;99.90;;;;;;5005265;28;20548;-83
2022/05/06 11:53:11;;;;;;;1.47;0.77;;;21.50;99.90;;;;;;5006184;28;20203;-83
2022/05/06 11:55:39;;;;;;;0.30;0.30;;;21.70;99.90;;;;;;5015995;28;20654;-83
2022/05/06 11:58:05;;;;;;;0.20;0.20;;;21.30;99.90;;;;;;5015670;28;20286;-83
2022/05/06 12:00:32;;;;;;;0.67;0.27;;;21.80;99.90;;;;;;4999978;28;20429;-82
2022/05/06 12:03:04;;;;;;;0.13;0.13;;;22.70;99.90;;;;;;5001309;28;20207;-83
2022/05/06 12:05:33;;;;;;;0.23;0.23;;;23.30;99.90;;;;;;5002811;28;20182;-83
2022/05/06 12:07:59;;;;;;;0.20;0.20;;;23.80;99.90;;;;;;5008828;28;20191;-83
2022/05/06 12:10:33;;;;;;;0.87;0.50;;;24.00;99.90;;;;;;5000736;28;20243;-83
2022/05/06 12:13:10;;;;;;;0.30;0.30;;;23.40;99.90;;;;;;5000591;28;20207;-83
2022/05/06 12:15:43;;;;;;;0.30;0.30;;;22.60;99.90;;;;;;5013856;28;20627;-85
2022/05/06 12:18:10;;;;;;;0.30;0.30;;;22.00;99.90;;;;;;5001873;28;20174;-83
2022/05/06 12:20:40;;;;;;;0.33;0.33;;;22.10;99.90;;;;;;5006480;28;20244;-84
2022/05/06 12:23:06;;;;;;;0.27;0.27;;;21.90;99.90;;;;;;4998367;28;20231;-84
2022/05/06 12:25:35;;;;;;;0.30;0.30;;;22.10;99.90;;;;;;5013772;28;20235;-83
2022/05/06 12:28:03;;;;;;;0.20;0.20;;;22.20;99.90;;;;;;5001309;28;20182;-83
2022/05/06 12:30:32;;;;;;;0.40;0.40;;;22.00;99.90;;;;;;5015306;28;20199;-84
2022/05/06 12:33:06;;;;;;;1.17;0.63;;;22.00;99.90;;;;;;4998317;28;20202;-84
2022/05/06 12:35:52;;;;;;;0.60;0.60;;;22.10;99.90;;;;;;5006105;28;20194;-84
2022/05/06 12:38:18;;;;;;;0.30;0.30;;;21.40;99.90;;;;;;5003994;28;20187;-82
2022/05/06 12:40:43;;;;;;;0.20;0.20;;;21.20;99.90;;;;;;4999953;28;20194;-83
2022/05/06 12:43:10;;;;;;;0.53;0.30;;;21.80;99.90;;;;;;5000378;28;20217;-83
2022/05/06 12:45:37;;;;;;;0.23;0.23;;;22.40;99.90;;;;;;5000050;28;21243;-83
2022/05/06 12:50:47;;;;;;;0.20;0.20;;;22.60;99.90;;;;;;5001382;28;20232;-83
2022/05/06 12:53:13;;;;;;;2.03;0.40;;;23.10;99.90;;;;;;5001156;28;20199;-81
2022/05/06 12:55:41;;;;;;;0.33;0.30;;;23.30;99.90;;;;;;4999498;28;20206;-83
2022/05/06 12:58:06;;;;;;;0.40;0.40;;;23.60;99.90;;;;;;5010922;28;20183;-83
2022/05/06 13:00:32;;;;;;;0.33;0.33;;;22.60;99.90;;;;;;4999972;28;20253;-83
2022/05/06 13:02:58;;;;;;;0.30;0.30;;;22.50;99.90;;;;;;5000806;28;20692;-83
2022/05/06 13:05:24;;;;;;;0.30;0.30;;;22.30;99.90;;;;;;4999071;28;20187;-83
2022/05/06 13:07:49;;;;;;;0.10;0.10;;;22.00;99.90;;;;;;5014430;28;20195;-83
2022/05/06 13:10:15;;;;;;;0.40;0.40;;;21.40;99.90;;;;;;5006060;28;20234;-82
2022/05/06 13:12:40;;;;;;;0.20;0.20;;;21.10;99.90;;;;;;4996376;28;20210;-81
2022/05/06 13:15:06;;;;;;;0.20;0.20;;;21.20;99.90;;;;;;4998564;28;20746;-83
2022/05/06 13:17:32;;;;;;;0.27;0.27;;;21.20;99.90;;;;;;5003947;28;20237;-83
2022/05/06 13:19:57;;;;;;;0.20;0.20;;;21.80;99.90;;;;;;5000164;28;20191;-82
2022/05/06 13:22:25;;;;;;;0.20;0.20;;;22.20;99.90;;;;;;4999345;28;20771;-83
2022/05/06 13:24:51;;;;;;;0.30;0.30;;;22.30;99.90;;;;;;5012127;28;20191;-83
2022/05/06 13:27:16;;;;;;;0.77;0.63;;;22.30;99.90;;;;;;4998786;28;20248;-83
2022/05/06 13:29:42;;;;;;;7.73;0.63;;;22.50;99.90;;;;;;4998973;28;20260;-83
2022/05/06 13:32:07;;;;;;;0.30;0.30;;;22.20;99.90;;;;;;4997427;28;20307;-83
2022/05/06 13:34:33;;;;;;;3.30;0.23;;;22.60;99.90;;;;;;4998494;28;20234;-83
2022/05/06 13:36:58;;;;;;;0.47;0.37;;;22.90;99.90;;;;;;5009123;28;20180;-83
2022/05/06 13:39:24;;;;;;;0.20;0.20;;;22.50;99.90;;;;;;5004334;28;20182;-82